createdAt,value
2019-03-09T00:00:11.949Z,99.90
2019-03-09T00:02:40.676Z,99.90
2019-03-09T00:05:09.804Z,99.90
2019-03-09T00:07:38.550Z,99.90
2019-03-09T00:10:09.341Z,99.90
2019-03-09T00:12:38.121Z,99.90
2019-03-09T00:15:08.020Z,99.90
2019-03-09T00:17:36.830Z,99.90
2019-03-09T00:20:07.909Z,99.90
2019-03-09T00:22:36.729Z,99.90
2019-03-09T00:25:19.494Z,99.90
2019-03-09T00:27:52.828Z,99.90
2019-03-09T00:30:23.262Z,99.90
2019-03-09T00:32:52.047Z,99.90
2019-03-09T00:35:20.859Z,99.90
2019-03-09T00:37:49.694Z,99.90
2019-03-09T00:40:18.844Z,99.90
2019-03-09T00:42:47.683Z,99.90
2019-03-09T00:45:16.482Z,99.90
2019-03-09T00:47:45.209Z,99.90
2019-03-09T00:50:14.044Z,99.90
2019-03-09T00:52:42.889Z,99.90
2019-03-09T00:55:12.789Z,99.90
2019-03-09T00:57:41.558Z,99.90
2019-03-09T01:00:16.320Z,99.90
2019-03-09T01:02:45.370Z,99.90
2019-03-09T01:05:14.650Z,99.90
2019-03-09T01:07:43.406Z,99.90
2019-03-09T01:10:14.379Z,99.90
2019-03-09T01:12:43.214Z,99.90
2019-03-09T01:15:12.313Z,99.90
2019-03-09T01:17:41.045Z,99.90
2019-03-09T01:20:12.314Z,99.90
2019-03-09T01:22:41.080Z,99.90
2019-03-09T01:25:10.883Z,99.90
2019-03-09T01:27:39.604Z,99.90
2019-03-09T01:30:11.581Z,99.90
2019-03-09T01:32:40.340Z,99.90
2019-03-09T01:35:09.151Z,99.90
2019-03-09T01:37:37.893Z,99.90
2019-03-09T01:40:09.725Z,99.90
2019-03-09T01:42:38.447Z,99.90
2019-03-09T01:45:10.197Z,99.90
2019-03-09T01:47:38.928Z,99.90
2019-03-09T01:50:10.523Z,99.90
2019-03-09T01:52:39.296Z,99.90
2019-03-09T01:55:15.570Z,99.90
2019-03-09T01:57:44.674Z,99.90
2019-03-09T02:00:15.820Z,99.90
2019-03-09T02:02:44.564Z,99.90
2019-03-09T02:05:13.483Z,99.90
2019-03-09T02:07:42.192Z,99.90
2019-03-09T02:10:14.906Z,99.90
2019-03-09T02:12:43.639Z,99.90
2019-03-09T02:15:14.689Z,99.90
2019-03-09T02:17:43.533Z,99.90
2019-03-09T02:20:16.918Z,99.90
2019-03-09T02:22:45.654Z,99.90
2019-03-09T02:25:14.853Z,99.90
2019-03-09T02:27:43.606Z,99.90
2019-03-09T02:30:16.449Z,99.90
2019-03-09T02:32:45.509Z,99.90
2019-03-09T02:35:15.158Z,99.90
2019-03-09T02:37:43.910Z,99.90
2019-03-09T02:40:17.892Z,99.90
2019-03-09T02:42:46.625Z,99.90
2019-03-09T02:45:17.971Z,99.90
2019-03-09T02:47:46.731Z,99.90
2019-03-09T02:50:16.363Z,99.90
2019-03-09T02:52:45.202Z,99.90
2019-03-09T02:55:14.370Z,99.90
2019-03-09T02:57:43.108Z,99.90
2019-03-09T03:00:15.220Z,99.90
2019-03-09T03:02:45.663Z,99.90
2019-03-09T03:05:15.577Z,99.90
2019-03-09T03:07:44.368Z,99.90
2019-03-09T03:10:14.701Z,99.90
2019-03-09T03:12:43.518Z,99.90
2019-03-09T03:15:14.862Z,99.90
2019-03-09T03:20:19.347Z,99.90
2019-03-09T03:22:48.150Z,99.90
2019-03-09T03:25:17.207Z,99.90
2019-03-09T03:27:46.345Z,99.90
2019-03-09T03:30:15.082Z,99.90
2019-03-09T03:32:44.180Z,99.90
2019-03-09T03:35:13.155Z,99.90
2019-03-09T03:37:41.874Z,99.90
2019-03-09T03:40:11.441Z,99.90
2019-03-09T03:42:40.255Z,99.90
2019-03-09T03:45:11.137Z,99.90
2019-03-09T03:47:39.901Z,99.90
2019-03-09T03:50:08.923Z,99.90
2019-03-09T03:52:37.687Z,99.90
2019-03-09T03:55:08.705Z,99.90
2019-03-09T03:57:37.442Z,99.90
2019-03-09T04:00:09.409Z,99.90
2019-03-09T04:02:38.227Z,99.90
2019-03-09T04:05:07.093Z,99.90
2019-03-09T04:07:36.255Z,99.90
2019-03-09T04:10:07.633Z,99.90
2019-03-09T04:12:36.538Z,99.90
2019-03-09T04:15:06.642Z,99.90
2019-03-09T04:17:35.477Z,99.90
2019-03-09T04:20:06.474Z,99.90
2019-03-09T04:22:35.291Z,99.90
2019-03-09T04:25:04.708Z,99.90
2019-03-09T04:27:33.561Z,99.90
2019-03-09T04:30:02.601Z,99.90
2019-03-09T04:32:31.438Z,99.90
2019-03-09T04:35:00.441Z,99.90
2019-03-09T04:37:29.185Z,99.90
2019-03-09T04:39:57.952Z,99.90
2019-03-09T04:42:26.803Z,99.90
2019-03-09T04:44:55.653Z,99.90
2019-03-09T04:47:24.490Z,99.90
2019-03-09T04:49:53.238Z,99.90
2019-03-09T04:52:21.985Z,99.90
2019-03-09T04:54:50.738Z,99.90
2019-03-09T04:57:19.487Z,99.90
2019-03-09T04:59:48.249Z,99.90
2019-03-09T05:02:16.990Z,99.90
2019-03-09T05:04:46.799Z,99.90
2019-03-09T05:07:19.548Z,99.90
2019-03-09T05:09:51.403Z,99.90
2019-03-09T05:12:20.174Z,99.90
2019-03-09T05:14:48.897Z,99.90
2019-03-09T05:17:17.665Z,99.90
2019-03-09T05:19:46.458Z,99.90
2019-03-09T05:22:15.197Z,99.90
2019-03-09T05:24:43.981Z,99.90
2019-03-09T05:27:12.704Z,99.90
2019-03-09T05:29:41.499Z,99.90
2019-03-09T05:32:10.298Z,99.90
2019-03-09T05:34:39.049Z,99.90
2019-03-09T05:37:07.854Z,99.90
2019-03-09T05:39:36.597Z,99.90
2019-03-09T05:42:05.365Z,99.90
2019-03-09T05:44:34.185Z,99.90
2019-03-09T05:47:02.957Z,99.90
2019-03-09T05:49:31.766Z,99.90
2019-03-09T05:52:21.531Z,99.90
2019-03-09T05:54:50.425Z,99.90
2019-03-09T05:57:19.194Z,99.90
2019-03-09T05:59:48.045Z,99.90
2019-03-09T06:02:16.822Z,99.90
2019-03-09T06:04:45.569Z,99.90
2019-03-09T06:07:14.305Z,99.90
2019-03-09T06:09:43.056Z,99.90
2019-03-09T06:12:11.845Z,99.90
2019-03-09T06:14:40.628Z,99.90
2019-03-09T06:17:09.352Z,99.90
2019-03-09T06:19:38.100Z,99.90
2019-03-09T06:22:06.863Z,99.90
2019-03-09T06:24:35.612Z,99.90
2019-03-09T06:27:04.380Z,99.90
2019-03-09T06:29:33.127Z,99.90
2019-03-09T06:32:33.253Z,99.90
2019-03-09T06:35:02.015Z,99.90
2019-03-09T06:37:32.305Z,99.90
2019-03-09T06:40:01.095Z,99.90
2019-03-09T06:42:35.639Z,99.90
2019-03-09T06:45:06.718Z,99.90
2019-03-09T06:47:35.509Z,99.90
2019-03-09T06:50:06.665Z,99.90
2019-03-09T06:52:35.481Z,99.90
2019-03-09T06:55:05.462Z,99.90
2019-03-09T06:57:34.251Z,99.90
2019-03-09T07:00:15.148Z,99.90
2019-03-09T07:02:43.913Z,99.90
2019-03-09T07:05:12.671Z,99.90
2019-03-09T07:07:44.262Z,99.90
2019-03-09T07:10:13.061Z,99.90
2019-03-09T07:12:42.066Z,99.90
2019-03-09T07:15:21.857Z,99.90
2019-03-09T07:17:51.837Z,99.90
2019-03-09T07:20:20.644Z,99.90
2019-03-09T07:22:49.393Z,99.90
2019-03-09T07:25:18.161Z,99.90
2019-03-09T07:28:04.071Z,99.90
2019-03-09T07:30:32.867Z,99.90
2019-03-09T07:33:04.669Z,99.90
2019-03-09T07:35:33.455Z,99.90
2019-03-09T07:38:02.244Z,99.90
2019-03-09T07:40:31.170Z,99.90
2019-03-09T07:43:00.298Z,99.90
2019-03-09T07:45:29.107Z,99.90
2019-03-09T07:47:57.881Z,99.90
2019-03-09T07:50:26.703Z,99.90
2019-03-09T07:52:55.806Z,99.90
2019-03-09T07:55:24.890Z,99.90
2019-03-09T07:58:01.936Z,99.90
2019-03-09T08:00:30.890Z,99.90
2019-03-09T08:02:59.851Z,99.90
2019-03-09T08:05:29.182Z,99.90
2019-03-09T08:07:57.987Z,99.90
2019-03-09T08:10:28.550Z,99.90
2019-03-09T08:12:57.331Z,99.90
2019-03-09T08:15:26.261Z,99.90
2019-03-09T08:17:55.922Z,99.90
2019-03-09T08:20:24.836Z,99.90
2019-03-09T08:22:53.701Z,99.90
2019-03-09T08:25:23.625Z,99.90
2019-03-09T08:27:52.645Z,99.90
2019-03-09T08:30:26.134Z,99.90
2019-03-09T08:32:54.893Z,99.90
2019-03-09T08:35:23.762Z,99.90
2019-03-09T08:37:52.719Z,99.90
2019-03-09T08:40:22.217Z,99.90
2019-03-09T08:42:51.072Z,99.90
2019-03-09T08:45:21.014Z,99.90
2019-03-09T08:47:52.385Z,99.90
2019-03-09T08:50:23.526Z,99.90
2019-03-09T08:52:52.483Z,99.90
2019-03-09T08:55:22.109Z,99.90
2019-03-09T08:57:50.966Z,99.90
2019-03-09T09:00:31.100Z,99.90
2019-03-09T09:02:59.950Z,99.90
2019-03-09T09:05:28.713Z,99.90
2019-03-09T09:07:57.521Z,99.90
2019-03-09T09:10:26.336Z,99.90
2019-03-09T09:12:55.110Z,99.90
2019-03-09T09:15:23.937Z,99.90
2019-03-09T09:17:52.693Z,99.90
2019-03-09T09:20:24.502Z,99.90
2019-03-09T09:22:53.253Z,99.90
2019-03-09T09:25:22.035Z,99.90
2019-03-09T09:27:51.994Z,99.90
2019-03-09T09:30:26.796Z,99.90
2019-03-09T09:32:55.870Z,99.90
2019-03-09T09:35:24.602Z,99.90
2019-03-09T09:37:53.514Z,99.90
2019-03-09T09:40:26.074Z,99.90
2019-03-09T09:42:57.705Z,99.90
2019-03-09T09:45:26.789Z,99.90
2019-03-09T09:47:55.758Z,99.90
2019-03-09T09:50:24.689Z,99.90
2019-03-09T09:55:20.717Z,99.90
2019-03-09T09:57:49.526Z,99.90
2019-03-09T10:00:23.938Z,99.90
2019-03-09T10:02:52.679Z,99.90
2019-03-09T10:05:22.309Z,99.90
2019-03-09T10:07:51.597Z,99.90
2019-03-09T10:10:21.533Z,99.90
2019-03-09T10:12:50.327Z,99.90
2019-03-09T10:15:21.197Z,99.90
2019-03-09T10:17:50.036Z,99.90
2019-03-09T10:20:18.859Z,99.90
2019-03-09T10:22:47.801Z,99.90
2019-03-09T10:25:16.689Z,99.90
2019-03-09T10:27:45.530Z,99.90
2019-03-09T10:30:21.946Z,99.90
2019-03-09T10:32:50.848Z,99.90
2019-03-09T10:35:19.923Z,99.90
2019-03-09T10:37:49.532Z,99.90
2019-03-09T10:40:19.221Z,99.90
2019-03-09T10:42:48.186Z,99.90
2019-03-09T10:45:21.292Z,99.90
2019-03-09T10:47:50.844Z,99.90
2019-03-09T10:50:21.280Z,99.90
2019-03-09T10:52:50.092Z,99.90
2019-03-09T10:55:27.269Z,99.90
2019-03-09T10:57:56.049Z,99.90
2019-03-09T11:00:27.889Z,99.90
2019-03-09T11:02:56.712Z,99.90
2019-03-09T11:05:25.592Z,99.90
2019-03-09T11:07:54.632Z,99.90
2019-03-09T11:10:23.481Z,99.90
2019-03-09T11:12:52.222Z,99.90
2019-03-09T11:15:20.985Z,99.90
2019-03-09T11:17:49.959Z,99.90
2019-03-09T11:20:20.241Z,99.90
2019-03-09T11:22:52.133Z,99.90
2019-03-09T11:25:20.938Z,99.90
2019-03-09T11:27:49.726Z,99.90
2019-03-09T11:30:23.958Z,99.90
2019-03-09T11:32:52.842Z,99.90
2019-03-09T11:35:21.622Z,99.90
2019-03-09T11:37:50.622Z,99.90
2019-03-09T11:40:19.379Z,99.90
2019-03-09T11:42:48.154Z,99.90
2019-03-09T11:45:18.754Z,99.90
2019-03-09T11:47:47.676Z,99.90
2019-03-09T11:50:17.911Z,99.90
2019-03-09T11:52:46.895Z,99.90
2019-03-09T11:55:16.848Z,99.90
2019-03-09T11:57:45.713Z,99.90
2019-03-09T12:00:23.886Z,99.90
2019-03-09T12:02:52.733Z,99.90
2019-03-09T12:05:21.514Z,99.90
2019-03-09T12:07:50.266Z,99.90
2019-03-09T12:10:19.217Z,99.90
2019-03-09T12:12:47.753Z,99.90
2019-03-09T12:15:17.266Z,99.90
2019-03-09T12:17:45.756Z,99.90
2019-03-09T12:20:17.236Z,96.20
2019-03-09T12:22:45.770Z,94.30
2019-03-09T12:25:16.238Z,93.90
2019-03-09T12:27:44.777Z,94.40
2019-03-09T12:30:15.764Z,91.30
2019-03-09T12:32:44.329Z,88.30
2019-03-09T12:35:12.952Z,88.60
2019-03-09T12:37:41.831Z,90.20
2019-03-09T12:40:21.412Z,95.40
2019-03-09T12:42:50.620Z,97.80
2019-03-09T12:45:19.413Z,99.00
2019-03-09T12:47:48.224Z,99.30
2019-03-09T12:50:22.105Z,99.90
2019-03-09T12:52:50.938Z,99.90
2019-03-09T12:55:19.707Z,99.90
2019-03-09T12:57:51.448Z,99.90
2019-03-09T13:00:24.376Z,99.90
2019-03-09T13:02:53.310Z,99.90
2019-03-09T13:05:22.089Z,99.90
2019-03-09T13:07:50.905Z,99.90
2019-03-09T13:10:19.694Z,99.90
2019-03-09T13:12:48.474Z,99.90
2019-03-09T13:15:17.436Z,99.90
2019-03-09T13:17:46.473Z,99.90
2019-03-09T13:20:16.517Z,99.90
2019-03-09T13:22:45.376Z,99.90
2019-03-09T13:25:14.722Z,99.90
2019-03-09T13:27:43.580Z,99.90
2019-03-09T13:30:20.515Z,99.90
2019-03-09T13:32:49.316Z,99.90
2019-03-09T13:35:18.142Z,99.90
2019-03-09T13:37:46.980Z,99.90
2019-03-09T13:40:16.569Z,99.90
2019-03-09T13:42:45.374Z,99.90
2019-03-09T13:45:15.458Z,99.90
2019-03-09T13:47:44.331Z,99.90
2019-03-09T13:50:14.227Z,99.90
2019-03-09T13:52:43.342Z,99.90
2019-03-09T13:55:13.060Z,99.90
2019-03-09T13:57:42.215Z,99.90
2019-03-09T14:00:15.627Z,99.90
2019-03-09T14:02:44.365Z,99.90
2019-03-09T14:05:13.239Z,99.90
2019-03-09T14:07:45.510Z,99.90
2019-03-09T14:10:15.875Z,99.90
2019-03-09T14:12:44.692Z,99.90
2019-03-09T14:15:15.095Z,99.90
2019-03-09T14:17:43.899Z,99.90
2019-03-09T14:20:16.660Z,99.90
2019-03-09T14:22:45.429Z,99.90
2019-03-09T14:25:17.214Z,99.90
2019-03-09T14:27:46.109Z,99.90
2019-03-09T14:30:17.068Z,99.90
2019-03-09T14:32:45.811Z,99.90
2019-03-09T14:35:14.966Z,99.90
2019-03-09T14:37:43.904Z,99.90
2019-03-09T14:40:14.307Z,99.90
2019-03-09T14:42:43.808Z,99.90
2019-03-09T14:45:20.645Z,99.90
2019-03-09T14:47:49.444Z,99.90
2019-03-09T14:53:25.332Z,99.90
2019-03-09T15:24:17.401Z,99.90
2019-03-09T15:38:43.764Z,99.90
2019-03-09T16:39:19.733Z,92.50
2019-03-09T16:42:07.885Z,94.20
2019-03-09T17:13:12.320Z,99.90
2019-03-09T17:24:49.267Z,99.90
2019-03-09T17:39:29.629Z,99.90
2019-03-09T17:54:25.369Z,99.90
2019-03-09T19:09:05.187Z,99.90
2019-03-09T19:23:42.560Z,99.90
2019-03-09T20:02:15.999Z,99.90
2019-03-09T20:52:51.958Z,99.90
2019-03-09T20:55:20.795Z,99.90
2019-03-09T20:57:49.587Z,99.90
2019-03-09T21:00:22.319Z,99.30
2019-03-09T21:02:51.172Z,99.90
2019-03-09T21:05:19.913Z,98.30
2019-03-09T21:07:49.093Z,98.40
2019-03-09T21:10:19.229Z,96.30
2019-03-09T21:12:56.567Z,94.40
2019-03-09T21:15:25.367Z,96.40
2019-03-09T21:17:54.158Z,77.70
2019-03-09T21:20:22.981Z,71.50
2019-03-09T21:22:51.821Z,81.60
2019-03-09T21:25:20.556Z,85.20
2019-03-09T21:27:49.343Z,70.50
2019-03-09T21:30:18.159Z,68.00
2019-03-09T21:32:46.931Z,61.80
2019-03-09T21:35:15.737Z,72.70
2019-03-09T21:37:44.515Z,58.10
2019-03-09T21:40:13.390Z,50.30
2019-03-09T21:42:42.353Z,38.70
2019-03-09T21:45:13.166Z,22.70
2019-03-09T21:47:41.993Z,25.30
2019-03-09T21:50:12.993Z,22.60
2019-03-09T21:52:41.751Z,31.20
2019-03-09T21:55:16.299Z,42.80
2019-03-09T21:57:45.121Z,31.50
2019-03-09T22:00:20.901Z,17.90
2019-03-09T22:02:50.564Z,18.00
2019-03-09T22:05:19.573Z,24.10
2019-03-09T22:07:48.316Z,18.20
2019-03-09T22:10:19.051Z,32.20
2019-03-09T22:12:47.883Z,20.50
2019-03-09T22:15:17.772Z,30.60
2019-03-09T22:17:46.505Z,14.20
2019-03-09T22:20:17.169Z,13.20
2019-03-09T22:22:46.023Z,15.30
2019-03-09T22:25:17.999Z,15.60
2019-03-09T22:27:46.870Z,17.20
2019-03-09T22:30:17.136Z,7.70
2019-03-09T22:32:45.961Z,1.70
2019-03-09T22:35:15.629Z,2.90
2019-03-09T22:37:44.392Z,12.90
2019-03-09T22:40:14.497Z,18.10
2019-03-09T22:42:43.296Z,4.40
2019-03-09T22:45:14.352Z,9.40
2019-03-09T22:47:43.157Z,20.20
2019-03-09T22:50:14.439Z,17.10
2019-03-09T22:52:43.213Z,21.20
2019-03-09T22:55:17.906Z,12.80
2019-03-09T22:57:46.744Z,17.00
2019-03-09T23:00:24.529Z,13.10
2019-03-09T23:02:53.304Z,22.30
2019-03-09T23:05:22.168Z,17.20
2019-03-09T23:07:50.981Z,13.60
2019-03-09T23:10:25.081Z,14.00
2019-03-09T23:12:53.830Z,14.40
2019-03-09T23:15:22.578Z,13.70
2019-03-09T23:17:51.631Z,9.70
2019-03-09T23:20:20.402Z,14.00
2019-03-09T23:22:49.176Z,11.70
2019-03-09T23:25:18.235Z,21.30
2019-03-09T23:27:47.050Z,11.00
2019-03-09T23:30:19.943Z,2.40
2019-03-09T23:32:48.823Z,1.00
2019-03-09T23:35:19.119Z,12.20
2019-03-09T23:37:48.219Z,9.90
2019-03-09T23:40:18.404Z,1.00
2019-03-09T23:42:47.397Z,8.10
2019-03-09T23:45:17.948Z,1.00
2019-03-09T23:47:46.844Z,5.30
2019-03-09T23:50:17.166Z,6.90
2019-03-09T23:52:46.405Z,2.90
2019-03-09T23:55:22.041Z,10.80
2019-03-09T23:57:47.881Z,1.00
